sensor_id;sensor_type;location;lat;lon;timestamp;pressure;altitude;pressure_sealevel;temperature;humidity
44351;BME280;62766;62.622;17.912;2023-03-22T00:00:37;100102.07;;;-0.37;46.26
44351;BME280;62766;62.622;17.912;2023-03-22T00:03:08;100095.33;;;-0.22;46.40
44351;BME280;62766;62.622;17.912;2023-03-22T00:05:37;100090.16;;;-0.45;46.15
44351;BME280;62766;62.622;17.912;2023-03-22T00:08:06;100084.74;;;-0.34;46.23
44351;BME280;62766;62.622;17.912;2023-03-22T00:10:37;100078.68;;;-0.20;46.11
44351;BME280;62766;62.622;17.912;2023-03-22T00:13:08;100075.95;;;-0.19;46.45
44351;BME280;62766;62.622;17.912;2023-03-22T00:15:36;100077.34;;;-0.07;46.63
44351;BME280;62766;62.622;17.912;2023-03-22T00:18:06;100075.97;;;-0.16;46.70
44351;BME280;62766;62.622;17.912;2023-03-22T00:20:35;100074.79;;;-0.20;46.57
44351;BME280;62766;62.622;17.912;2023-03-22T00:23:04;100075.30;;;-0.09;46.61
44351;BME280;62766;62.622;17.912;2023-03-22T00:25:32;100071.46;;;-0.05;46.53
44351;BME280;62766;62.622;17.912;2023-03-22T00:28:00;100067.92;;;-0.08;47.08
44351;BME280;62766;62.622;17.912;2023-03-22T00:30:29;100061.26;;;0.03;47.07
44351;BME280;62766;62.622;17.912;2023-03-22T00:32:57;100054.90;;;0.01;46.49
44351;BME280;62766;62.622;17.912;2023-03-22T00:35:26;100049.55;;;-0.15;46.60
44351;BME280;62766;62.622;17.912;2023-03-22T00:37:55;100043.89;;;-0.15;46.57
44351;BME280;62766;62.622;17.912;2023-03-22T00:40:23;100035.97;;;-0.12;46.33
44351;BME280;62766;62.622;17.912;2023-03-22T00:42:52;100036.53;;;-0.07;46.75
44351;BME280;62766;62.622;17.912;2023-03-22T00:45:21;100034.89;;;-0.21;46.56
44351;BME280;62766;62.622;17.912;2023-03-22T00:47:49;100032.18;;;-0.17;46.30
44351;BME280;62766;62.622;17.912;2023-03-22T00:50:18;100025.97;;;-0.20;46.37
44351;BME280;62766;62.622;17.912;2023-03-22T00:52:46;100020.54;;;-0.12;46.86
44351;BME280;62766;62.622;17.912;2023-03-22T00:55:15;100015.58;;;-0.11;47.68
44351;BME280;62766;62.622;17.912;2023-03-22T00:57:43;100010.47;;;-0.04;47.74
44351;BME280;62766;62.622;17.912;2023-03-22T01:00:32;100004.35;;;-0.20;47.53
44351;BME280;62766;62.622;17.912;2023-03-22T01:03:01;100002.77;;;-0.12;47.33
44351;BME280;62766;62.622;17.912;2023-03-22T01:05:31;100002.22;;;-0.22;47.17
44351;BME280;62766;62.622;17.912;2023-03-22T01:08:00;99997.29;;;-0.30;47.53
44351;BME280;62766;62.622;17.912;2023-03-22T01:10:29;99989.27;;;-0.16;47.86
44351;BME280;62766;62.622;17.912;2023-03-22T01:12:57;99982.48;;;-0.20;47.62
44351;BME280;62766;62.622;17.912;2023-03-22T01:15:26;99977.05;;;-0.08;47.88
44351;BME280;62766;62.622;17.912;2023-03-22T01:17:54;99968.29;;;-0.07;48.40
44351;BME280;62766;62.622;17.912;2023-03-22T01:20:23;99965.59;;;-0.12;48.35
44351;BME280;62766;62.622;17.912;2023-03-22T01:22:51;99959.74;;;-0.08;48.58
44351;BME280;62766;62.622;17.912;2023-03-22T01:25:20;99957.58;;;-0.06;48.75
44351;BME280;62766;62.622;17.912;2023-03-22T01:27:48;99959.08;;;-0.08;48.60
44351;BME280;62766;62.622;17.912;2023-03-22T01:30:17;99952.66;;;-0.10;48.88
44351;BME280;62766;62.622;17.912;2023-03-22T01:32:45;99950.40;;;-0.13;48.58
44351;BME280;62766;62.622;17.912;2023-03-22T01:35:14;99949.27;;;-0.18;48.78
44351;BME280;62766;62.622;17.912;2023-03-22T01:37:42;99946.14;;;-0.08;48.95
44351;BME280;62766;62.622;17.912;2023-03-22T01:40:13;99941.69;;;-0.11;49.42
44351;BME280;62766;62.622;17.912;2023-03-22T01:42:41;99940.31;;;-0.09;49.31
44351;BME280;62766;62.622;17.912;2023-03-22T01:45:43;99934.44;;;-0.06;48.94
44351;BME280;62766;62.622;17.912;2023-03-22T01:48:17;99928.82;;;-0.03;48.42
44351;BME280;62766;62.622;17.912;2023-03-22T01:50:55;99922.11;;;-0.02;47.65
44351;BME280;62766;62.622;17.912;2023-03-22T01:53:25;99913.48;;;-0.12;47.39
44351;BME280;62766;62.622;17.912;2023-03-22T01:55:54;99910.41;;;-0.23;47.12
44351;BME280;62766;62.622;17.912;2023-03-22T01:58:25;99907.37;;;-0.32;47.15
44351;BME280;62766;62.622;17.912;2023-03-22T02:00:54;99907.31;;;-0.30;46.99
44351;BME280;62766;62.622;17.912;2023-03-22T02:03:29;99907.07;;;-0.14;46.83
44351;BME280;62766;62.622;17.912;2023-03-22T02:06:00;99907.38;;;-0.14;47.52
44351;BME280;62766;62.622;17.912;2023-03-22T02:08:29;99901.70;;;0.05;47.86
44351;BME280;62766;62.622;17.912;2023-03-22T02:11:00;99897.66;;;0.03;47.48
44351;BME280;62766;62.622;17.912;2023-03-22T02:13:38;99894.53;;;-0.03;47.38
44351;BME280;62766;62.622;17.912;2023-03-22T02:16:22;99888.81;;;0.04;47.83
44351;BME280;62766;62.622;17.912;2023-03-22T02:19:01;99882.83;;;0.04;47.45
44351;BME280;62766;62.622;17.912;2023-03-22T02:21:47;99878.54;;;-0.08;46.91
44351;BME280;62766;62.622;17.912;2023-03-22T02:29:06;99866.47;;;-0.16;47.26
44351;BME280;62766;62.622;17.912;2023-03-22T02:36:37;99860.15;;;0.04;47.52
44351;BME280;62766;62.622;17.912;2023-03-22T02:39:20;99852.57;;;0.03;47.21
44351;BME280;62766;62.622;17.912;2023-03-22T02:42:10;99848.99;;;-0.17;46.99
44351;BME280;62766;62.622;17.912;2023-03-22T02:44:50;99842.91;;;-0.08;47.22
44351;BME280;62766;62.622;17.912;2023-03-22T02:47:26;99837.94;;;-0.07;47.50
44351;BME280;62766;62.622;17.912;2023-03-22T02:50:02;99832.53;;;-0.20;47.36
44351;BME280;62766;62.622;17.912;2023-03-22T02:52:37;99834.46;;;-0.13;47.30
44351;BME280;62766;62.622;17.912;2023-03-22T02:55:12;99832.97;;;-0.04;46.98
44351;BME280;62766;62.622;17.912;2023-03-22T02:57:46;99829.25;;;-0.08;47.12
44351;BME280;62766;62.622;17.912;2023-03-22T03:00:17;99821.49;;;-0.14;47.01
44351;BME280;62766;62.622;17.912;2023-03-22T03:02:48;99815.77;;;-0.17;47.19
44351;BME280;62766;62.622;17.912;2023-03-22T03:05:19;99811.83;;;-0.15;47.33
44351;BME280;62766;62.622;17.912;2023-03-22T03:07:53;99808.78;;;-0.22;47.39
44351;BME280;62766;62.622;17.912;2023-03-22T03:10:22;99804.31;;;-0.19;46.96
44351;BME280;62766;62.622;17.912;2023-03-22T03:12:51;99799.25;;;-0.17;46.91
44351;BME280;62766;62.622;17.912;2023-03-22T03:15:20;99800.16;;;-0.15;47.01
44351;BME280;62766;62.622;17.912;2023-03-22T03:18:03;99796.87;;;-0.18;46.95
44351;BME280;62766;62.622;17.912;2023-03-22T03:20:41;99793.22;;;-0.21;47.15
44351;BME280;62766;62.622;17.912;2023-03-22T03:23:17;99791.36;;;-0.20;46.87
44351;BME280;62766;62.622;17.912;2023-03-22T03:25:58;99788.69;;;-0.23;46.90
44351;BME280;62766;62.622;17.912;2023-03-22T03:28:35;99781.07;;;-0.10;47.33
44351;BME280;62766;62.622;17.912;2023-03-22T03:31:15;99780.67;;;-0.13;47.32
44351;BME280;62766;62.622;17.912;2023-03-22T03:33:52;99779.42;;;-0.12;47.02
44351;BME280;62766;62.622;17.912;2023-03-22T03:36:24;99771.41;;;-0.16;47.02
44351;BME280;62766;62.622;17.912;2023-03-22T03:38:55;99767.05;;;-0.04;47.12
44351;BME280;62766;62.622;17.912;2023-03-22T03:41:27;99762.93;;;-0.01;47.33
44351;BME280;62766;62.622;17.912;2023-03-22T03:43:56;99757.92;;;-0.04;47.63
44351;BME280;62766;62.622;17.912;2023-03-22T03:46:26;99756.39;;;-0.16;48.01
44351;BME280;62766;62.622;17.912;2023-03-22T03:48:56;99751.13;;;-0.11;48.51
44351;BME280;62766;62.622;17.912;2023-03-22T03:51:26;99741.70;;;-0.16;48.98
44351;BME280;62766;62.622;17.912;2023-03-22T03:53:55;99740.33;;;-0.19;49.27
44351;BME280;62766;62.622;17.912;2023-03-22T03:56:23;99732.39;;;-0.14;49.76
44351;BME280;62766;62.622;17.912;2023-03-22T03:58:52;99728.00;;;-0.11;50.49
44351;BME280;62766;62.622;17.912;2023-03-22T04:01:20;99721.08;;;-0.08;51.17
44351;BME280;62766;62.622;17.912;2023-03-22T04:03:49;99719.58;;;-0.02;51.71
44351;BME280;62766;62.622;17.912;2023-03-22T04:06:17;99710.86;;;-0.06;52.36
44351;BME280;62766;62.622;17.912;2023-03-22T04:08:46;99705.90;;;-0.13;52.45
44351;BME280;62766;62.622;17.912;2023-03-22T04:11:14;99699.01;;;-0.02;53.12
44351;BME280;62766;62.622;17.912;2023-03-22T04:13:43;99691.93;;;-0.10;53.59
44351;BME280;62766;62.622;17.912;2023-03-22T04:16:11;99688.65;;;-0.13;53.94
44351;BME280;62766;62.622;17.912;2023-03-22T04:18:40;99687.34;;;-0.16;54.15
44351;BME280;62766;62.622;17.912;2023-03-22T04:21:08;99681.55;;;-0.06;54.43
44351;BME280;62766;62.622;17.912;2023-03-22T04:23:37;99673.03;;;-0.30;54.76
44351;BME280;62766;62.622;17.912;2023-03-22T04:26:06;99666.52;;;-0.27;54.93
44351;BME280;62766;62.622;17.912;2023-03-22T04:28:34;99659.26;;;-0.24;55.22
44351;BME280;62766;62.622;17.912;2023-03-22T04:31:03;99657.68;;;-0.19;55.68
44351;BME280;62766;62.622;17.912;2023-03-22T04:33:31;99657.39;;;-0.27;55.50
44351;BME280;62766;62.622;17.912;2023-03-22T04:35:59;99649.58;;;-0.34;55.93
44351;BME280;62766;62.622;17.912;2023-03-22T04:38:28;99644.33;;;-0.25;56.28
44351;BME280;62766;62.622;17.912;2023-03-22T04:40:56;99640.33;;;-0.22;56.53
44351;BME280;62766;62.622;17.912;2023-03-22T04:43:25;99632.51;;;-0.19;56.48
44351;BME280;62766;62.622;17.912;2023-03-22T04:45:54;99628.70;;;-0.25;57.01
44351;BME280;62766;62.622;17.912;2023-03-22T04:48:22;99630.89;;;-0.21;57.62
44351;BME280;62766;62.622;17.912;2023-03-22T04:50:50;99627.08;;;-0.18;57.68
44351;BME280;62766;62.622;17.912;2023-03-22T04:53:19;99618.65;;;-0.22;57.99
44351;BME280;62766;62.622;17.912;2023-03-22T04:55:47;99614.41;;;-0.32;58.14
44351;BME280;62766;62.622;17.912;2023-03-22T04:58:16;99608.68;;;-0.25;58.46
44351;BME280;62766;62.622;17.912;2023-03-22T05:03:17;99607.43;;;-0.16;59.25
44351;BME280;62766;62.622;17.912;2023-03-22T05:05:49;99600.65;;;-0.10;59.21
44351;BME280;62766;62.622;17.912;2023-03-22T05:08:18;99600.02;;;-0.36;59.12
44351;BME280;62766;62.622;17.912;2023-03-22T05:10:47;99598.81;;;-0.22;59.75
44351;BME280;62766;62.622;17.912;2023-03-22T05:13:16;99592.83;;;-0.19;59.72
44351;BME280;62766;62.622;17.912;2023-03-22T05:15:45;99590.78;;;-0.03;60.27
44351;BME280;62766;62.622;17.912;2023-03-22T05:18:13;99583.19;;;-0.05;60.12
44351;BME280;62766;62.622;17.912;2023-03-22T05:20:42;99576.04;;;0.03;60.71
44351;BME280;62766;62.622;17.912;2023-03-22T05:23:10;99578.18;;;-0.02;61.22
44351;BME280;62766;62.622;17.912;2023-03-22T05:25:39;99570.81;;;0.05;61.13
44351;BME280;62766;62.622;17.912;2023-03-22T05:28:07;99566.12;;;0.03;61.22
44351;BME280;62766;62.622;17.912;2023-03-22T05:30:36;99565.59;;;0.09;61.34
44351;BME280;62766;62.622;17.912;2023-03-22T05:33:04;99557.36;;;0.09;61.50
44351;BME280;62766;62.622;17.912;2023-03-22T05:35:34;99554.49;;;0.15;61.40
44351;BME280;62766;62.622;17.912;2023-03-22T05:38:03;99550.40;;;0.23;61.40
44351;BME280;62766;62.622;17.912;2023-03-22T05:40:32;99543.15;;;0.36;61.27
44351;BME280;62766;62.622;17.912;2023-03-22T05:43:00;99536.50;;;0.50;60.99
44351;BME280;62766;62.622;17.912;2023-03-22T05:45:28;99527.41;;;0.58;60.58
44351;BME280;62766;62.622;17.912;2023-03-22T05:47:57;99523.99;;;0.70;60.51
44351;BME280;62766;62.622;17.912;2023-03-22T05:50:25;99517.56;;;0.62;60.54
44351;BME280;62766;62.622;17.912;2023-03-22T05:52:54;99515.14;;;0.72;60.51
44351;BME280;62766;62.622;17.912;2023-03-22T05:55:22;99512.68;;;0.74;60.26
44351;BME280;62766;62.622;17.912;2023-03-22T05:57:51;99509.93;;;0.99;60.20
44351;BME280;62766;62.622;17.912;2023-03-22T06:00:20;99506.21;;;0.81;60.14
44351;BME280;62766;62.622;17.912;2023-03-22T06:02:50;99500.51;;;0.77;60.04
44351;BME280;62766;62.622;17.912;2023-03-22T06:05:21;99496.88;;;0.77;59.90
44351;BME280;62766;62.622;17.912;2023-03-22T06:07:50;99496.89;;;0.89;59.81
44351;BME280;62766;62.622;17.912;2023-03-22T06:10:19;99493.60;;;1.01;59.74
44351;BME280;62766;62.622;17.912;2023-03-22T06:12:49;99488.14;;;0.95;59.31
44351;BME280;62766;62.622;17.912;2023-03-22T06:15:18;99482.38;;;1.12;59.10
44351;BME280;62766;62.622;17.912;2023-03-22T06:17:46;99481.04;;;1.03;59.11
44351;BME280;62766;62.622;17.912;2023-03-22T06:20:14;99475.19;;;1.21;58.86
44351;BME280;62766;62.622;17.912;2023-03-22T06:22:42;99466.90;;;1.19;58.74
44351;BME280;62766;62.622;17.912;2023-03-22T06:25:11;99462.74;;;1.23;58.74
44351;BME280;62766;62.622;17.912;2023-03-22T06:27:39;99454.42;;;1.24;58.47
44351;BME280;62766;62.622;17.912;2023-03-22T06:30:08;99447.29;;;1.30;58.38
44351;BME280;62766;62.622;17.912;2023-03-22T06:32:37;99448.56;;;1.41;58.13
44351;BME280;62766;62.622;17.912;2023-03-22T06:35:06;99442.64;;;1.48;58.04
44351;BME280;62766;62.622;17.912;2023-03-22T06:37:36;99441.02;;;1.49;58.02
44351;BME280;62766;62.622;17.912;2023-03-22T06:40:06;99437.63;;;1.41;58.14
44351;BME280;62766;62.622;17.912;2023-03-22T06:42:34;99430.30;;;1.44;58.13
44351;BME280;62766;62.622;17.912;2023-03-22T06:45:04;99426.95;;;1.34;58.41
44351;BME280;62766;62.622;17.912;2023-03-22T06:47:33;99423.44;;;1.41;58.44
44351;BME280;62766;62.622;17.912;2023-03-22T06:50:02;99418.56;;;1.44;58.43
44351;BME280;62766;62.622;17.912;2023-03-22T06:52:30;99413.02;;;1.55;58.58
44351;BME280;62766;62.622;17.912;2023-03-22T06:54:59;99408.55;;;1.43;58.83
44351;BME280;62766;62.622;17.912;2023-03-22T06:57:28;99407.04;;;1.47;58.96
44351;BME280;62766;62.622;17.912;2023-03-22T06:59:57;99400.09;;;1.34;59.34
44351;BME280;62766;62.622;17.912;2023-03-22T07:02:25;99392.02;;;1.51;59.62
44351;BME280;62766;62.622;17.912;2023-03-22T07:04:54;99388.37;;;1.37;60.63
44351;BME280;62766;62.622;17.912;2023-03-22T07:07:22;99389.80;;;1.36;61.21
44351;BME280;62766;62.622;17.912;2023-03-22T07:09:51;99384.61;;;1.49;61.29
44351;BME280;62766;62.622;17.912;2023-03-22T07:12:20;99381.12;;;1.45;61.35
44351;BME280;62766;62.622;17.912;2023-03-22T07:14:49;99377.68;;;1.55;61.47
44351;BME280;62766;62.622;17.912;2023-03-22T07:17:19;99373.19;;;1.47;61.88
44351;BME280;62766;62.622;17.912;2023-03-22T07:19:48;99371.80;;;1.59;62.47
44351;BME280;62766;62.622;17.912;2023-03-22T07:22:17;99366.73;;;1.51;63.01
44351;BME280;62766;62.622;17.912;2023-03-22T07:24:45;99362.15;;;1.48;63.64
44351;BME280;62766;62.622;17.912;2023-03-22T07:27:14;99358.59;;;1.45;64.44
44351;BME280;62766;62.622;17.912;2023-03-22T07:29:42;99350.90;;;1.53;64.63
44351;BME280;62766;62.622;17.912;2023-03-22T07:32:11;99344.52;;;1.57;65.37
44351;BME280;62766;62.622;17.912;2023-03-22T07:34:39;99339.86;;;1.61;66.13
44351;BME280;62766;62.622;17.912;2023-03-22T07:37:08;99335.41;;;1.71;66.53
44351;BME280;62766;62.622;17.912;2023-03-22T07:39:36;99330.27;;;1.74;67.19
44351;BME280;62766;62.622;17.912;2023-03-22T07:42:05;99326.49;;;1.72;67.67
44351;BME280;62766;62.622;17.912;2023-03-22T07:44:33;99316.77;;;1.69;68.26
44351;BME280;62766;62.622;17.912;2023-03-22T07:47:02;99312.09;;;1.73;68.52
44351;BME280;62766;62.622;17.912;2023-03-22T07:49:30;99308.47;;;1.85;68.95
44351;BME280;62766;62.622;17.912;2023-03-22T07:51:58;99301.71;;;1.87;69.08
44351;BME280;62766;62.622;17.912;2023-03-22T07:54:27;99297.19;;;1.88;69.21
44351;BME280;62766;62.622;17.912;2023-03-22T07:56:56;99292.87;;;1.83;69.56
44351;BME280;62766;62.622;17.912;2023-03-22T07:59:24;99290.34;;;1.89;69.68
44351;BME280;62766;62.622;17.912;2023-03-22T08:01:52;99286.55;;;1.91;69.45
44351;BME280;62766;62.622;17.912;2023-03-22T08:04:21;99281.11;;;1.99;69.79
44351;BME280;62766;62.622;17.912;2023-03-22T08:06:50;99275.01;;;1.89;69.83
44351;BME280;62766;62.622;17.912;2023-03-22T08:09:18;99265.57;;;2.08;69.81
44351;BME280;62766;62.622;17.912;2023-03-22T08:11:48;99261.50;;;2.19;69.60
44351;BME280;62766;62.622;17.912;2023-03-22T08:14:17;99255.55;;;2.02;69.63
44351;BME280;62766;62.622;17.912;2023-03-22T08:16:46;99250.54;;;2.01;69.67
44351;BME280;62766;62.622;17.912;2023-03-22T08:19:14;99245.52;;;1.95;69.94
44351;BME280;62766;62.622;17.912;2023-03-22T08:21:42;99240.17;;;1.93;70.32
44351;BME280;62766;62.622;17.912;2023-03-22T08:24:10;99233.05;;;1.83;70.67
44351;BME280;62766;62.622;17.912;2023-03-22T08:26:39;99234.24;;;1.72;70.83
44351;BME280;62766;62.622;17.912;2023-03-22T08:29:08;99229.09;;;1.53;71.53
44351;BME280;62766;62.622;17.912;2023-03-22T08:31:36;99219.26;;;1.63;72.02
44351;BME280;62766;62.622;17.912;2023-03-22T08:34:04;99213.77;;;1.75;72.29
44351;BME280;62766;62.622;17.912;2023-03-22T08:36:32;99209.62;;;1.77;72.53
44351;BME280;62766;62.622;17.912;2023-03-22T08:39:00;99197.12;;;1.97;72.15
44351;BME280;62766;62.622;17.912;2023-03-22T08:41:29;99196.36;;;2.09;71.77
44351;BME280;62766;62.622;17.912;2023-03-22T08:43:57;99198.08;;;2.25;71.09
44351;BME280;62766;62.622;17.912;2023-03-22T08:46:26;99189.77;;;2.42;70.55
44351;BME280;62766;62.622;17.912;2023-03-22T08:48:54;99181.24;;;2.36;70.24
44351;BME280;62766;62.622;17.912;2023-03-22T08:51:23;99178.54;;;2.42;69.58
44351;BME280;62766;62.622;17.912;2023-03-22T08:53:52;99175.46;;;2.42;69.58
44351;BME280;62766;62.622;17.912;2023-03-22T08:56:21;99165.99;;;2.45;69.48
44351;BME280;62766;62.622;17.912;2023-03-22T08:58:49;99157.79;;;2.45;69.64
44351;BME280;62766;62.622;17.912;2023-03-22T09:01:19;99155.58;;;2.54;69.40
44351;BME280;62766;62.622;17.912;2023-03-22T09:03:48;99149.63;;;2.64;69.53
44351;BME280;62766;62.622;17.912;2023-03-22T09:06:17;99144.80;;;2.73;68.94
44351;BME280;62766;62.622;17.912;2023-03-22T09:08:45;99133.98;;;2.81;68.22
44351;BME280;62766;62.622;17.912;2023-03-22T09:11:14;99130.12;;;2.88;67.98
44351;BME280;62766;62.622;17.912;2023-03-22T09:13:42;99121.51;;;2.98;67.70
44351;BME280;62766;62.622;17.912;2023-03-22T09:16:10;99115.48;;;3.05;67.52
44351;BME280;62766;62.622;17.912;2023-03-22T09:18:39;99117.49;;;3.04;67.31
44351;BME280;62766;62.622;17.912;2023-03-22T09:21:09;99107.03;;;3.02;66.98
44351;BME280;62766;62.622;17.912;2023-03-22T09:23:38;99103.35;;;3.06;66.81
44351;BME280;62766;62.622;17.912;2023-03-22T09:26:07;99097.42;;;3.02;66.87
44351;BME280;62766;62.622;17.912;2023-03-22T09:28:36;99098.25;;;3.02;67.05
44351;BME280;62766;62.622;17.912;2023-03-22T09:31:07;99090.30;;;2.92;66.82
44351;BME280;62766;62.622;17.912;2023-03-22T09:33:38;99084.33;;;2.76;67.42
44351;BME280;62766;62.622;17.912;2023-03-22T09:36:08;99077.52;;;2.70;67.73
44351;BME280;62766;62.622;17.912;2023-03-22T09:38:37;99070.13;;;2.74;68.07
44351;BME280;62766;62.622;17.912;2023-03-22T09:41:09;99070.26;;;2.76;68.11
44351;BME280;62766;62.622;17.912;2023-03-22T09:43:42;99069.02;;;2.93;67.88
44351;BME280;62766;62.622;17.912;2023-03-22T09:46:15;99063.19;;;2.92;67.78
44351;BME280;62766;62.622;17.912;2023-03-22T09:48:46;99057.70;;;2.95;67.70
44351;BME280;62766;62.622;17.912;2023-03-22T09:51:28;99050.47;;;3.03;67.38
44351;BME280;62766;62.622;17.912;2023-03-22T09:53:58;99045.02;;;3.08;67.23
44351;BME280;62766;62.622;17.912;2023-03-22T09:56:28;99043.92;;;3.07;67.12
44351;BME280;62766;62.622;17.912;2023-03-22T09:59:03;99037.54;;;3.11;67.35
44351;BME280;62766;62.622;17.912;2023-03-22T10:01:39;99034.61;;;3.23;67.00
44351;BME280;62766;62.622;17.912;2023-03-22T10:04:23;99024.69;;;3.12;66.97
44351;BME280;62766;62.622;17.912;2023-03-22T10:07:03;99016.10;;;3.13;66.87
44351;BME280;62766;62.622;17.912;2023-03-22T10:09:39;99012.14;;;3.25;66.76
44351;BME280;62766;62.622;17.912;2023-03-22T10:12:16;99006.24;;;3.11;66.72
44351;BME280;62766;62.622;17.912;2023-03-22T10:14:49;98998.76;;;3.18;66.89
44351;BME280;62766;62.622;17.912;2023-03-22T10:17:24;98991.62;;;3.28;66.89
44351;BME280;62766;62.622;17.912;2023-03-22T10:19:58;98989.93;;;3.34;66.60
44351;BME280;62766;62.622;17.912;2023-03-22T10:22:31;98982.62;;;3.27;66.59
44351;BME280;62766;62.622;17.912;2023-03-22T10:25:06;98978.95;;;3.59;65.93
44351;BME280;62766;62.622;17.912;2023-03-22T10:27:36;98972.07;;;3.55;65.74
44351;BME280;62766;62.622;17.912;2023-03-22T10:30:09;98966.75;;;3.43;65.85
44351;BME280;62766;62.622;17.912;2023-03-22T10:32:50;98963.56;;;3.14;66.28
44351;BME280;62766;62.622;17.912;2023-03-22T10:35:20;98959.72;;;3.22;66.55
44351;BME280;62766;62.622;17.912;2023-03-22T10:37:51;98956.88;;;3.36;66.77
44351;BME280;62766;62.622;17.912;2023-03-22T10:40:25;98951.98;;;3.15;66.68
44351;BME280;62766;62.622;17.912;2023-03-22T10:42:56;98955.80;;;3.20;66.77
44351;BME280;62766;62.622;17.912;2023-03-22T10:45:26;98963.10;;;3.06;67.14
44351;BME280;62766;62.622;17.912;2023-03-22T10:47:59;98958.51;;;2.95;67.61
44351;BME280;62766;62.622;17.912;2023-03-22T10:50:32;98955.55;;;2.88;68.14
44351;BME280;62766;62.622;17.912;2023-03-22T10:53:04;98952.50;;;2.87;68.30
44351;BME280;62766;62.622;17.912;2023-03-22T10:55:38;98946.23;;;2.80;68.50
44351;BME280;62766;62.622;17.912;2023-03-22T10:58:11;98936.09;;;2.86;68.61
44351;BME280;62766;62.622;17.912;2023-03-22T11:03:37;98917.48;;;3.04;67.88
44351;BME280;62766;62.622;17.912;2023-03-22T11:06:11;98913.23;;;2.98;67.37
44351;BME280;62766;62.622;17.912;2023-03-22T11:08:42;98908.73;;;3.13;67.08
44351;BME280;62766;62.622;17.912;2023-03-22T11:11:15;98907.16;;;3.19;66.86
44351;BME280;62766;62.622;17.912;2023-03-22T11:13:50;98905.90;;;3.47;66.40
44351;BME280;62766;62.622;17.912;2023-03-22T11:16:20;98905.06;;;3.56;65.90
44351;BME280;62766;62.622;17.912;2023-03-22T11:18:49;98899.02;;;3.61;65.83
44351;BME280;62766;62.622;17.912;2023-03-22T11:21:18;98892.72;;;4.00;65.43
44351;BME280;62766;62.622;17.912;2023-03-22T11:23:56;98890.16;;;4.32;64.30
44351;BME280;62766;62.622;17.912;2023-03-22T11:26:29;98891.01;;;4.71;63.00
44351;BME280;62766;62.622;17.912;2023-03-22T11:29:04;98885.61;;;4.75;62.30
44351;BME280;62766;62.622;17.912;2023-03-22T11:31:51;98883.11;;;4.99;61.57
44351;BME280;62766;62.622;17.912;2023-03-22T11:34:25;98873.78;;;5.34;60.77
44351;BME280;62766;62.622;17.912;2023-03-22T11:36:55;98868.19;;;5.72;59.75
44351;BME280;62766;62.622;17.912;2023-03-22T11:39:28;98860.58;;;6.13;58.41
44351;BME280;62766;62.622;17.912;2023-03-22T11:41:57;98856.21;;;6.35;57.40
44351;BME280;62766;62.622;17.912;2023-03-22T11:44:27;98849.26;;;6.51;56.41
44351;BME280;62766;62.622;17.912;2023-03-22T11:47:01;98837.94;;;6.68;55.65
44351;BME280;62766;62.622;17.912;2023-03-22T11:49:38;98842.13;;;6.69;55.45
44351;BME280;62766;62.622;17.912;2023-03-22T11:52:10;98841.93;;;6.79;55.32
44351;BME280;62766;62.622;17.912;2023-03-22T11:54:39;98826.43;;;7.10;54.87
44351;BME280;62766;62.622;17.912;2023-03-22T11:57:13;98824.88;;;7.39;53.96
44351;BME280;62766;62.622;17.912;2023-03-22T11:59:47;98819.37;;;7.61;52.97
44351;BME280;62766;62.622;17.912;2023-03-22T12:02:20;98815.07;;;7.88;52.81
44351;BME280;62766;62.622;17.912;2023-03-22T12:04:53;98813.51;;;7.93;51.92
44351;BME280;62766;62.622;17.912;2023-03-22T12:07:24;98819.21;;;7.83;51.17
44351;BME280;62766;62.622;17.912;2023-03-22T12:09:57;98815.20;;;7.55;51.50
44351;BME280;62766;62.622;17.912;2023-03-22T12:12:29;98811.41;;;7.38;52.00
44351;BME280;62766;62.622;17.912;2023-03-22T12:15:03;98811.03;;;7.36;52.08
44351;BME280;62766;62.622;17.912;2023-03-22T12:17:36;98808.40;;;7.34;52.36
44351;BME280;62766;62.622;17.912;2023-03-22T12:20:16;98811.84;;;7.59;52.38
44351;BME280;62766;62.622;17.912;2023-03-22T12:22:51;98811.97;;;7.50;51.91
44351;BME280;62766;62.622;17.912;2023-03-22T12:25:23;98809.47;;;7.31;52.34
44351;BME280;62766;62.622;17.912;2023-03-22T12:27:54;98809.05;;;7.18;52.45
44351;BME280;62766;62.622;17.912;2023-03-22T12:30:26;98808.92;;;7.00;53.08
44351;BME280;62766;62.622;17.912;2023-03-22T12:33:00;98804.10;;;6.88;53.05
44351;BME280;62766;62.622;17.912;2023-03-22T12:35:34;98798.85;;;6.64;53.52
44351;BME280;62766;62.622;17.912;2023-03-22T12:38:14;98798.39;;;6.52;54.22
44351;BME280;62766;62.622;17.912;2023-03-22T12:40:50;98794.13;;;6.47;54.25
44351;BME280;62766;62.622;17.912;2023-03-22T12:43:33;98791.35;;;6.34;54.50
44351;BME280;62766;62.622;17.912;2023-03-22T12:46:06;98795.66;;;6.25;55.42
44351;BME280;62766;62.622;17.912;2023-03-22T12:48:45;98785.11;;;6.28;55.89
44351;BME280;62766;62.622;17.912;2023-03-22T12:51:16;98778.89;;;6.44;55.33
44351;BME280;62766;62.622;17.912;2023-03-22T12:53:46;98775.96;;;6.49;55.42
44351;BME280;62766;62.622;17.912;2023-03-22T12:56:19;98767.57;;;6.34;55.32
44351;BME280;62766;62.622;17.912;2023-03-22T12:58:52;98760.72;;;6.34;55.44
44351;BME280;62766;62.622;17.912;2023-03-22T13:01:28;98746.80;;;6.57;55.50
44351;BME280;62766;62.622;17.912;2023-03-22T13:03:58;98738.47;;;6.92;54.81
44351;BME280;62766;62.622;17.912;2023-03-22T13:06:30;98732.16;;;6.92;54.83
44351;BME280;62766;62.622;17.912;2023-03-22T13:09:10;98729.16;;;7.51;53.74
44351;BME280;62766;62.622;17.912;2023-03-22T13:11:39;98721.73;;;7.92;52.54
44351;BME280;62766;62.622;17.912;2023-03-22T13:14:16;98721.47;;;8.15;51.98
44351;BME280;62766;62.622;17.912;2023-03-22T13:17:37;98721.91;;;8.28;51.03
44351;BME280;62766;62.622;17.912;2023-03-22T13:20:25;98714.91;;;8.39;50.60
44351;BME280;62766;62.622;17.912;2023-03-22T13:23:26;98720.92;;;8.02;50.46
44351;BME280;62766;62.622;17.912;2023-03-22T13:26:00;98726.21;;;7.09;52.18
44351;BME280;62766;62.622;17.912;2023-03-22T13:28:31;98733.09;;;6.83;53.41
44351;BME280;62766;62.622;17.912;2023-03-22T13:31:00;98731.15;;;6.71;53.76